Time;durP1;ratioP1;P1;durP2;ratioP2;P2;SDS_P1;SDS_P2;PMS_P1;PMS_P2;Temp;Humidity;BMP_temperature;BMP_pressure;BME280_temperature;BME280_humidity;BME280_pressure;Samples;Min_cycle;Max_cycle;Signal;HPM_P1;HPM_P2
2022/03/23 00:01:03;;;;;;;;;57.75;47.50;;;;;;;;5120853;27;45341;-77
2022/03/23 00:03:28;;;;;;;;;55.75;44.75;;;;;;;;5122304;27;45288;-77
2022/03/23 00:05:53;;;;;;;;;54.50;43.25;;;;;;;;5120653;27;47464;-77
2022/03/23 00:08:19;;;;;;;;;57.25;45.25;;;;;;;;5121598;27;45406;-77
2022/03/23 00:10:45;;;;;;;;;56.00;46.25;;;;;;;;5120478;27;45313;-77
2022/03/23 00:13:10;;;;;;;;;52.50;43.00;;;;;;;;5120475;27;45364;-77
2022/03/23 00:15:35;;;;;;;;;53.25;44.00;;;;;;;;5129341;27;46063;-77
2022/03/23 00:18:00;;;;;;;;;53.25;44.25;;;;;;;;5122604;27;47286;-77
2022/03/23 00:20:26;;;;;;;;;55.75;46.25;;;;;;;;5142432;27;45348;-77
2022/03/23 00:22:51;;;;;;;;;53.75;44.25;;;;;;;;5142392;27;45348;-77
2022/03/23 00:25:16;;;;;;;;;58.00;46.50;;;;;;;;5142363;27;45425;-77
2022/03/23 00:27:42;;;;;;;;;55.50;45.00;;;;;;;;5142107;27;46437;-77
2022/03/23 00:30:08;;;;;;;;;51.75;42.75;;;;;;;;5142462;27;45327;-77
2022/03/23 00:32:34;;;;;;;;;57.50;45.75;;;;;;;;5142725;27;45372;-77
2022/03/23 00:34:59;;;;;;;;;52.00;43.50;;;;;;;;5123164;27;46380;-77
2022/03/23 00:37:24;;;;;;;;;49.75;40.25;;;;;;;;5123276;27;48659;-77
2022/03/23 00:39:50;;;;;;;;;54.75;45.25;;;;;;;;5142195;27;45379;-77
2022/03/23 00:42:15;;;;;;;;;49.25;41.00;;;;;;;;5123583;27;45388;-76
2022/03/23 00:44:41;;;;;;;;;55.25;45.00;;;;;;;;5141846;27;45337;-77
2022/03/23 00:47:06;;;;;;;;;44.50;38.00;;;;;;;;5141932;27;45371;-77
2022/03/23 00:49:31;;;;;;;;;51.75;43.25;;;;;;;;5141929;27;45360;-77
2022/03/23 00:51:56;;;;;;;;;49.75;40.50;;;;;;;;5123586;27;45839;-77
2022/03/23 00:54:25;;;;;;;;;49.25;41.25;;;;;;;;5141643;27;45380;-77
2022/03/23 00:56:51;;;;;;;;;51.50;42.50;;;;;;;;5123290;27;47230;-77
2022/03/23 00:59:17;;;;;;;;;52.00;42.00;;;;;;;;5141866;27;45225;-77
2022/03/23 01:01:45;;;;;;;;;44.25;37.50;;;;;;;;5142129;27;45306;-77
2022/03/23 01:04:11;;;;;;;;;50.00;41.00;;;;;;;;5141702;27;45431;-77
2022/03/23 01:06:36;;;;;;;;;48.00;41.00;;;;;;;;5141670;27;46496;-78
2022/03/23 01:09:01;;;;;;;;;51.00;42.25;;;;;;;;5141518;27;45319;-77
2022/03/23 01:11:26;;;;;;;;;49.25;39.00;;;;;;;;5123302;27;45400;-77
2022/03/23 01:13:52;;;;;;;;;47.75;37.50;;;;;;;;5141654;27;45275;-77
2022/03/23 01:16:17;;;;;;;;;48.50;41.00;;;;;;;;5126426;27;45452;-77
2022/03/23 01:18:42;;;;;;;;;49.25;40.75;;;;;;;;5102284;27;45252;-78
2022/03/23 01:21:08;;;;;;;;;49.75;42.75;;;;;;;;5120995;27;45597;-77
2022/03/23 01:23:33;;;;;;;;;49.25;39.50;;;;;;;;5120386;27;45351;-77
2022/03/23 01:25:58;;;;;;;;;50.00;40.75;;;;;;;;5120688;27;45592;-77
2022/03/23 01:28:23;;;;;;;;;42.75;35.50;;;;;;;;5120653;27;45645;-77
2022/03/23 01:30:49;;;;;;;;;46.25;40.25;;;;;;;;5120590;27;45611;-77
2022/03/23 01:33:14;;;;;;;;;49.50;40.75;;;;;;;;5119213;27;47599;-78
2022/03/23 01:35:39;;;;;;;;;56.25;45.00;;;;;;;;5120776;27;45293;-77
2022/03/23 01:38:04;;;;;;;;;46.25;38.00;;;;;;;;5101841;27;45670;-77
2022/03/23 01:40:30;;;;;;;;;51.50;42.25;;;;;;;;5120851;27;45687;-77
2022/03/23 01:42:55;;;;;;;;;47.25;38.00;;;;;;;;5120437;27;45353;-77
2022/03/23 01:45:20;;;;;;;;;52.25;41.75;;;;;;;;5115246;27;47130;-77
2022/03/23 01:47:46;;;;;;;;;52.75;42.25;;;;;;;;5098358;27;45448;-77
2022/03/23 01:50:11;;;;;;;;;50.00;42.75;;;;;;;;5098564;27;45372;-77
2022/03/23 01:52:38;;;;;;;;;48.50;41.00;;;;;;;;5099609;27;45538;-77
2022/03/23 01:55:08;;;;;;;;;50.75;40.75;;;;;;;;5099742;27;45592;-77
2022/03/23 01:57:34;;;;;;;;;47.25;40.50;;;;;;;;5098142;27;45771;-77
2022/03/23 01:59:59;;;;;;;;;54.25;41.50;;;;;;;;5098231;27;45342;-77
2022/03/23 02:02:24;;;;;;;;;47.50;40.50;;;;;;;;5115627;27;46332;-78
2022/03/23 02:04:49;;;;;;;;;47.50;40.75;;;;;;;;5099395;27;45466;-77
2022/03/23 02:07:14;;;;;;;;;41.75;37.00;;;;;;;;5099245;27;45399;-77
2022/03/23 02:09:40;;;;;;;;;49.25;39.50;;;;;;;;5098290;27;45627;-77
2022/03/23 02:12:08;;;;;;;;;45.00;38.75;;;;;;;;5099678;27;45238;-77
2022/03/23 02:14:34;;;;;;;;;50.50;40.25;;;;;;;;5099585;27;45435;-77
2022/03/23 02:16:59;;;;;;;;;49.00;38.50;;;;;;;;5118666;27;45662;-77
2022/03/23 02:19:24;;;;;;;;;47.50;41.00;;;;;;;;5120242;27;45335;-77
2022/03/23 02:21:52;;;;;;;;;49.25;40.75;;;;;;;;5118701;27;46344;-77
2022/03/23 02:24:21;;;;;;;;;46.50;39.00;;;;;;;;5118627;27;47817;-77
2022/03/23 02:26:46;;;;;;;;;53.25;41.75;;;;;;;;5119858;27;45288;-77
2022/03/23 02:29:13;;;;;;;;;44.00;38.50;;;;;;;;5119665;27;45431;-77
2022/03/23 02:31:38;;;;;;;;;49.00;41.75;;;;;;;;5118778;27;46521;-77
2022/03/23 02:34:04;;;;;;;;;51.75;43.25;;;;;;;;5119784;27;46130;-77
2022/03/23 02:36:30;;;;;;;;;53.75;42.50;;;;;;;;5118429;27;45952;-77
2022/03/23 02:38:56;;;;;;;;;51.75;42.25;;;;;;;;5119970;27;45351;-78
2022/03/23 02:41:21;;;;;;;;;57.00;46.25;;;;;;;;5120034;27;45371;-77
2022/03/23 02:43:46;;;;;;;;;58.00;47.00;;;;;;;;5123243;27;45689;-77
2022/03/23 02:46:12;;;;;;;;;52.00;44.00;;;;;;;;5136487;27;45310;-77
2022/03/23 02:48:37;;;;;;;;;54.25;44.50;;;;;;;;5144196;27;45250;-77
2022/03/23 02:51:02;;;;;;;;;57.00;46.75;;;;;;;;5143998;27;45429;-77
2022/03/23 03:02:10;;;;;;;;;54.75;46.00;;;;;;;;5143621;27;45541;-77
2022/03/23 03:04:35;;;;;;;;;54.25;42.00;;;;;;;;5143652;27;46368;-77
2022/03/23 03:07:00;;;;;;;;;52.00;41.25;;;;;;;;5124519;27;45962;-76
2022/03/23 03:09:25;;;;;;;;;52.75;45.25;;;;;;;;5143795;27;45283;-77
2022/03/23 03:11:51;;;;;;;;;56.75;45.75;;;;;;;;5143630;27;45357;-77
2022/03/23 03:14:16;;;;;;;;;54.25;43.00;;;;;;;;5143577;27;45328;-77
2022/03/23 03:16:42;;;;;;;;;52.25;43.25;;;;;;;;5124858;27;45365;-77
2022/03/23 03:19:10;;;;;;;;;52.00;41.00;;;;;;;;5121590;27;45458;-77
2022/03/23 03:21:35;;;;;;;;;44.50;38.75;;;;;;;;5122574;27;45331;-77
2022/03/23 03:24:01;;;;;;;;;45.75;39.75;;;;;;;;5122251;27;46137;-77
2022/03/23 03:26:26;;;;;;;;;44.25;36.50;;;;;;;;5121182;27;45332;-76
2022/03/23 03:28:52;;;;;;;;;44.25;37.00;;;;;;;;5103924;27;45300;-77
2022/03/23 03:31:17;;;;;;;;;49.50;40.50;;;;;;;;5121072;27;46320;-77
2022/03/23 03:33:43;;;;;;;;;46.00;39.50;;;;;;;;5122499;27;45406;-77
2022/03/23 03:36:08;;;;;;;;;43.00;38.00;;;;;;;;5103989;27;45373;-77
2022/03/23 03:38:35;;;;;;;;;43.25;39.00;;;;;;;;5122269;27;45440;-77
2022/03/23 03:41:01;;;;;;;;;46.75;39.25;;;;;;;;5122335;27;45737;-77
2022/03/23 03:43:27;;;;;;;;;49.50;40.75;;;;;;;;5120888;27;47119;-77
2022/03/23 03:45:53;;;;;;;;;49.75;42.50;;;;;;;;5103607;27;45718;-77
2022/03/23 03:48:18;;;;;;;;;55.25;45.50;;;;;;;;5122352;27;45380;-77
2022/03/23 03:50:43;;;;;;;;;48.75;40.75;;;;;;;;5122359;27;45418;-77
2022/03/23 03:53:09;;;;;;;;;51.25;42.00;;;;;;;;5121872;27;45265;-77
2022/03/23 03:55:34;;;;;;;;;50.75;39.25;;;;;;;;5122179;27;45138;-77
2022/03/23 03:58:00;;;;;;;;;52.25;42.50;;;;;;;;5122484;27;45312;-77
2022/03/23 04:00:25;;;;;;;;;50.00;39.75;;;;;;;;5121006;27;46300;-77
2022/03/23 04:02:51;;;;;;;;;47.25;39.25;;;;;;;;5121078;27;47477;-77
2022/03/23 04:05:16;;;;;;;;;50.50;41.50;;;;;;;;5122311;27;45283;-77
2022/03/23 04:07:41;;;;;;;;;50.50;42.25;;;;;;;;5122260;27;45250;-77
2022/03/23 04:10:07;;;;;;;;;46.50;39.25;;;;;;;;5122373;27;45554;-77
2022/03/23 04:12:32;;;;;;;;;45.25;38.50;;;;;;;;5122203;27;45319;-77
2022/03/23 04:14:58;;;;;;;;;52.50;41.00;;;;;;;;5118586;27;45317;-77
2022/03/23 04:17:23;;;;;;;;;45.50;39.75;;;;;;;;5101688;27;45329;-77
2022/03/23 04:19:48;;;;;;;;;51.75;39.50;;;;;;;;5101471;27;45457;-78
2022/03/23 04:22:13;;;;;;;;;47.50;39.75;;;;;;;;5099588;27;48222;-77
2022/03/23 04:24:39;;;;;;;;;48.25;39.25;;;;;;;;5103291;27;45354;-77
2022/03/23 04:27:05;;;;;;;;;44.75;37.75;;;;;;;;5103351;27;45502;-77
2022/03/23 04:29:30;;;;;;;;;43.75;36.50;;;;;;;;5102908;27;47084;-77
2022/03/23 04:31:55;;;;;;;;;39.00;35.50;;;;;;;;5121583;27;45705;-77
2022/03/23 04:34:21;;;;;;;;;36.00;33.75;;;;;;;;5121587;27;45345;-77
2022/03/23 04:36:46;;;;;;;;;41.00;37.75;;;;;;;;5120015;27;45713;-77
2022/03/23 04:39:11;;;;;;;;;33.00;28.50;;;;;;;;5121505;27;45508;-77
2022/03/23 04:41:36;;;;;;;;;41.00;37.00;;;;;;;;5121523;27;45484;-77
2022/03/23 04:44:02;;;;;;;;;42.75;37.50;;;;;;;;5121563;27;45374;-77
2022/03/23 04:46:27;;;;;;;;;40.00;36.00;;;;;;;;5102996;27;45322;-77
2022/03/23 04:48:52;;;;;;;;;36.75;35.25;;;;;;;;5119668;27;45478;-77
2022/03/23 04:51:17;;;;;;;;;37.00;34.00;;;;;;;;5121434;27;45427;-77
2022/03/23 04:53:43;;;;;;;;;39.00;35.50;;;;;;;;5120893;27;45359;-77
2022/03/23 04:56:08;;;;;;;;;35.00;32.25;;;;;;;;5103008;27;45444;-77
2022/03/23 04:58:34;;;;;;;;;35.00;33.75;;;;;;;;5102801;27;47292;-77
2022/03/23 05:01:00;;;;;;;;;43.00;35.25;;;;;;;;5119761;27;47216;-77
2022/03/23 05:03:25;;;;;;;;;41.50;35.00;;;;;;;;5121073;27;45196;-77
2022/03/23 05:05:50;;;;;;;;;34.00;33.75;;;;;;;;5119221;27;45348;-77
2022/03/23 05:08:16;;;;;;;;;29.75;28.50;;;;;;;;5120801;27;45442;-77
2022/03/23 05:10:41;;;;;;;;;33.75;30.25;;;;;;;;5121098;27;45382;-77
2022/03/23 05:13:06;;;;;;;;;34.25;32.50;;;;;;;;5102602;27;45896;-78
2022/03/23 05:15:31;;;;;;;;;33.25;31.75;;;;;;;;5129578;27;45493;-76
2022/03/23 05:17:56;;;;;;;;;36.00;33.75;;;;;;;;5123133;27;46304;-79
2022/03/23 05:20:23;;;;;;;;;38.00;34.00;;;;;;;;5122949;27;47062;-79
2022/03/23 05:22:48;;;;;;;;;25.00;21.50;;;;;;;;5141431;27;45236;-80
2022/03/23 05:25:13;;;;;;;;;38.50;33.75;;;;;;;;5123015;27;45526;-78
2022/03/23 05:27:39;;;;;;;;;32.75;30.50;;;;;;;;5141400;27;45478;-79
2022/03/23 05:30:07;;;;;;;;;32.75;30.00;;;;;;;;5122734;27;47026;-78
2022/03/23 05:32:32;;;;;;;;;33.75;30.25;;;;;;;;5141772;27;45379;-78
2022/03/23 05:34:57;;;;;;;;;35.75;34.75;;;;;;;;5141526;27;45417;-78
2022/03/23 05:37:22;;;;;;;;;35.25;32.75;;;;;;;;5122484;27;45915;-79
2022/03/23 05:39:48;;;;;;;;;34.75;32.00;;;;;;;;5122725;27;47229;-78
2022/03/23 05:42:13;;;;;;;;;29.25;26.50;;;;;;;;5141524;27;45379;-78
2022/03/23 05:44:38;;;;;;;;;28.50;26.00;;;;;;;;5141559;27;45306;-78
2022/03/23 05:47:04;;;;;;;;;34.00;29.00;;;;;;;;5115133;27;46066;-78
2022/03/23 05:49:29;;;;;;;;;35.00;33.50;;;;;;;;5119704;27;46709;-78
2022/03/23 05:51:55;;;;;;;;;33.50;30.50;;;;;;;;5118858;27;45200;-78
2022/03/23 05:54:20;;;;;;;;;32.25;31.50;;;;;;;;5119889;27;45317;-80
2022/03/23 05:56:45;;;;;;;;;35.25;34.00;;;;;;;;5118836;27;45341;-78
2022/03/23 05:59:11;;;;;;;;;33.50;32.00;;;;;;;;5119664;27;46696;-78
2022/03/23 06:01:36;;;;;;;;;31.75;29.00;;;;;;;;5120419;27;45219;-78
2022/03/23 06:04:01;;;;;;;;;34.75;32.25;;;;;;;;5101960;27;45287;-79
2022/03/23 06:06:26;;;;;;;;;37.75;33.75;;;;;;;;5120240;27;45548;-78
2022/03/23 06:08:52;;;;;;;;;46.75;36.25;;;;;;;;5119249;27;46118;-78
2022/03/23 06:11:17;;;;;;;;;30.75;28.75;;;;;;;;5120450;27;45345;-77
2022/03/23 06:13:44;;;;;;;;;35.00;34.25;;;;;;;;5120952;27;45369;-78
2022/03/23 06:16:09;;;;;;;;;36.00;34.00;;;;;;;;5127878;27;45416;-79
2022/03/23 06:18:35;;;;;;;;;41.00;36.25;;;;;;;;5124852;27;46203;-79
2022/03/23 06:21:00;;;;;;;;;36.75;32.75;;;;;;;;5125127;27;45301;-79
2022/03/23 06:23:25;;;;;;;;;36.75;33.50;;;;;;;;5104337;27;45346;-79
2022/03/23 06:25:51;;;;;;;;;36.25;35.00;;;;;;;;5110033;27;47333;-79
2022/03/23 06:28:16;;;;;;;;;36.00;33.75;;;;;;;;5101212;27;47466;-79
2022/03/23 06:30:42;;;;;;;;;34.50;31.25;;;;;;;;5124552;27;45343;-79
2022/03/23 06:33:07;;;;;;;;;35.00;30.00;;;;;;;;5134800;27;45253;-79
2022/03/23 06:35:33;;;;;;;;;39.00;33.50;;;;;;;;5107764;27;45444;-78
2022/03/23 06:37:58;;;;;;;;;36.50;30.75;;;;;;;;5124162;27;45628;-81
2022/03/23 06:40:24;;;;;;;;;32.00;31.25;;;;;;;;5127186;27;45444;-80
2022/03/23 06:42:49;;;;;;;;;38.25;34.25;;;;;;;;5108064;27;45252;-80
2022/03/23 06:45:14;;;;;;;;;41.50;36.25;;;;;;;;5127914;27;45349;-80
2022/03/23 06:47:40;;;;;;;;;40.75;36.25;;;;;;;;5127686;27;45355;-80
2022/03/23 06:50:07;;;;;;;;;42.25;38.00;;;;;;;;5124817;27;45236;-81
2022/03/23 06:52:32;;;;;;;;;42.50;37.25;;;;;;;;5125140;27;45352;-81
2022/03/23 06:54:58;;;;;;;;;32.25;31.25;;;;;;;;5105069;27;46294;-81
2022/03/23 06:57:23;;;;;;;;;42.00;35.50;;;;;;;;5105280;27;46853;-80
2022/03/23 06:59:48;;;;;;;;;45.25;39.00;;;;;;;;5120524;27;45133;-79
2022/03/23 07:02:14;;;;;;;;;43.50;37.25;;;;;;;;5104536;27;45633;-80
2022/03/23 07:04:39;;;;;;;;;41.50;36.75;;;;;;;;5106360;27;46385;-81
2022/03/23 07:07:04;;;;;;;;;44.00;37.00;;;;;;;;5124715;27;45411;-81
2022/03/23 07:09:32;;;;;;;;;39.75;36.25;;;;;;;;5124341;27;45376;-81
2022/03/23 07:11:58;;;;;;;;;39.00;36.00;;;;;;;;5123210;27;45333;-81
2022/03/23 07:14:24;;;;;;;;;41.50;37.50;;;;;;;;5104657;27;46260;-81
2022/03/23 07:16:49;;;;;;;;;37.25;34.00;;;;;;;;5123913;27;47422;-81
2022/03/23 07:19:14;;;;;;;;;42.25;36.00;;;;;;;;5144305;27;45304;-81
2022/03/23 07:21:40;;;;;;;;;43.75;36.50;;;;;;;;5148637;27;45238;-88
2022/03/23 07:24:05;;;;;;;;;40.00;34.50;;;;;;;;5127274;27;45328;-87
2022/03/23 07:26:31;;;;;;;;;37.25;35.25;;;;;;;;5132728;27;47340;-86
2022/03/23 07:28:56;;;;;;;;;44.00;37.75;;;;;;;;5146600;27;45143;-84
2022/03/23 07:31:21;;;;;;;;;45.50;38.50;;;;;;;;5142884;27;45404;-82
2022/03/23 07:33:47;;;;;;;;;42.50;36.75;;;;;;;;5149084;27;45429;-84
2022/03/23 07:36:12;;;;;;;;;44.75;37.00;;;;;;;;5148560;27;46577;-83
2022/03/23 07:38:38;;;;;;;;;43.25;37.50;;;;;;;;5145013;27;45233;-83
2022/03/23 07:41:04;;;;;;;;;48.50;38.50;;;;;;;;5144955;27;45385;-82
2022/03/23 07:43:29;;;;;;;;;46.75;37.75;;;;;;;;5143736;27;45470;-82
2022/03/23 07:45:54;;;;;;;;;45.25;38.00;;;;;;;;5143088;27;45636;-83
2022/03/23 07:48:22;;;;;;;;;49.00;38.75;;;;;;;;5124751;27;45827;-82
2022/03/23 07:50:47;;;;;;;;;41.00;35.50;;;;;;;;5111485;27;45369;-85
2022/03/23 07:53:12;;;;;;;;;44.00;38.25;;;;;;;;5103918;27;46127;-84
2022/03/23 07:55:38;;;;;;;;;50.25;38.75;;;;;;;;5123919;27;46301;-84
2022/03/23 07:58:03;;;;;;;;;41.50;36.00;;;;;;;;5122487;27;45301;-84
2022/03/23 08:00:28;;;;;;;;;45.75;39.00;;;;;;;;5103980;27;45378;-84
2022/03/23 08:02:53;;;;;;;;;48.50;40.50;;;;;;;;5103785;27;46623;-82
2022/03/23 08:05:19;;;;;;;;;47.25;39.75;;;;;;;;5122291;27;45577;-82
2022/03/23 08:07:45;;;;;;;;;49.75;41.75;;;;;;;;5123081;27;45157;-83
2022/03/23 08:10:10;;;;;;;;;50.75;39.50;;;;;;;;5131435;27;45228;-82
2022/03/23 08:12:35;;;;;;;;;47.25;39.75;;;;;;;;5137333;27;45475;-84
2022/03/23 08:15:01;;;;;;;;;49.75;40.00;;;;;;;;5138352;27;45378;-86
2022/03/23 08:17:26;;;;;;;;;43.00;38.00;;;;;;;;5128655;27;45393;-84
2022/03/23 08:22:35;;;;;;;;;40.75;35.75;;;;;;;;5121597;27;45324;-79
2022/03/23 08:25:00;;;;;;;;;39.75;34.75;;;;;;;;5106115;27;47283;-86
2022/03/23 08:27:26;;;;;;;;;38.00;33.75;;;;;;;;5107417;27;45699;-82
2022/03/23 08:29:51;;;;;;;;;30.75;28.50;;;;;;;;5122174;27;45202;-83
2022/03/23 08:32:17;;;;;;;;;28.50;28.50;;;;;;;;5122126;27;45968;-88
2022/03/23 08:34:42;;;;;;;;;20.75;19.25;;;;;;;;5103241;27;47246;-81
2022/03/23 08:37:07;;;;;;;;;30.50;29.75;;;;;;;;5120191;27;45370;-82
2022/03/23 08:39:33;;;;;;;;;26.00;26.00;;;;;;;;5120042;27;45148;-82
2022/03/23 08:41:58;;;;;;;;;31.75;29.25;;;;;;;;5121763;27;45217;-80
2022/03/23 08:44:23;;;;;;;;;31.00;29.75;;;;;;;;5119141;27;47426;-80
2022/03/23 08:46:48;;;;;;;;;29.00;27.75;;;;;;;;5121178;27;45562;-80
2022/03/23 08:49:13;;;;;;;;;26.75;25.50;;;;;;;;5102960;27;45243;-80
2022/03/23 08:51:39;;;;;;;;;32.00;29.00;;;;;;;;5102756;27;47172;-80
2022/03/23 08:54:04;;;;;;;;;29.25;26.50;;;;;;;;5102016;27;46867;-80
2022/03/23 08:56:29;;;;;;;;;26.50;24.50;;;;;;;;5100455;27;46012;-80
2022/03/23 08:58:54;;;;;;;;;30.25;29.00;;;;;;;;5119122;27;45642;-80
2022/03/23 09:01:20;;;;;;;;;33.00;30.50;;;;;;;;5118920;27;45514;-80
2022/03/23 09:03:45;;;;;;;;;25.50;24.25;;;;;;;;5118923;27;45393;-80
2022/03/23 09:06:10;;;;;;;;;25.50;25.25;;;;;;;;5119251;27;45334;-79
2022/03/23 09:08:36;;;;;;;;;26.00;25.50;;;;;;;;5117518;27;45533;-80
2022/03/23 09:11:01;;;;;;;;;24.50;24.50;;;;;;;;5102492;27;46597;-79
2022/03/23 09:13:26;;;;;;;;;26.50;25.75;;;;;;;;5121161;27;45435;-80
2022/03/23 09:15:51;;;;;;;;;29.75;28.50;;;;;;;;5132216;27;45223;-80
2022/03/23 09:18:17;;;;;;;;;29.75;28.00;;;;;;;;5142156;27;45427;-80
2022/03/23 09:20:42;;;;;;;;;29.00;28.00;;;;;;;;5123315;27;46398;-80
2022/03/23 09:23:08;;;;;;;;;27.25;24.50;;;;;;;;5141299;27;45297;-80
2022/03/23 09:25:34;;;;;;;;;29.50;25.75;;;;;;;;5123203;27;45328;-80
2022/03/23 09:27:59;;;;;;;;;28.25;28.25;;;;;;;;5141431;27;45432;-80
2022/03/23 09:30:24;;;;;;;;;27.25;25.75;;;;;;;;5140261;27;45897;-79
2022/03/23 09:32:50;;;;;;;;;23.00;23.00;;;;;;;;5122839;27;47079;-79
2022/03/23 09:35:16;;;;;;;;;28.50;26.50;;;;;;;;5141614;27;45867;-80
2022/03/23 09:37:47;;;;;;;;;27.75;24.50;;;;;;;;5122714;27;45336;-80
2022/03/23 09:40:14;;;;;;;;;25.50;25.50;;;;;;;;5141577;27;45251;-79
2022/03/23 09:42:41;;;;;;;;;25.00;22.00;;;;;;;;5141474;27;45633;-80
2022/03/23 09:45:06;;;;;;;;;24.00;22.00;;;;;;;;5139960;27;45920;-80
2022/03/23 09:47:31;;;;;;;;;25.67;25.67;;;;;;;;5141463;27;45308;-80
2022/03/23 09:49:57;;;;;;;;;24.33;23.67;;;;;;;;5141270;27;45140;-79
2022/03/23 09:52:22;;;;;;;;;28.33;27.00;;;;;;;;5125870;27;47141;-80
2022/03/23 09:54:47;;;;;;;;;29.00;26.25;;;;;;;;5143903;27;45839;-80
2022/03/23 09:57:16;;;;;;;;;25.33;25.33;;;;;;;;5145291;27;45213;-79
2022/03/23 09:59:41;;;;;;;;;27.50;23.25;;;;;;;;5144929;27;45421;-79
2022/03/23 10:02:26;;;;;;;;;23.67;23.67;;;;;;;;5126280;27;48127;-78
2022/03/23 10:05:10;;;;;;;;;20.33;20.33;;;;;;;;5128427;27;45909;-75
2022/03/23 10:07:48;;;;;;;;;23.67;21.33;;;;;;;;5123948;27;45310;-77
2022/03/23 10:10:19;;;;;;;;;24.33;22.67;;;;;;;;5124192;27;45424;-76
2022/03/23 10:13:03;;;;;;;;;25.00;24.33;;;;;;;;5124079;27;45567;-77
2022/03/23 10:15:47;;;;;;;;;25.33;24.33;;;;;;;;5131637;27;45341;-76
2022/03/23 10:18:38;;;;;;;;;23.67;22.33;;;;;;;;5126128;27;45496;-76
2022/03/23 10:21:03;;;;;;;;;22.67;22.33;;;;;;;;5094232;27;46353;-74
2022/03/23 10:23:30;;;;;;;;;20.33;20.00;;;;;;;;5144178;27;46280;-78
2022/03/23 10:25:56;;;;;;;;;22.67;22.33;;;;;;;;5125927;27;45315;-78
2022/03/23 10:28:21;;;;;;;;;27.67;24.67;;;;;;;;5144608;27;45441;-75
2022/03/23 10:30:47;;;;;;;;;37.67;31.67;;;;;;;;5144458;27;45210;-76
2022/03/23 10:33:22;;;;;;;;;30.33;26.67;;;;;;;;5129061;27;45711;-77
2022/03/23 10:35:47;;;;;;;;;27.33;26.67;;;;;;;;5122486;27;45377;-78
2022/03/23 10:38:14;;;;;;;;;23.00;23.00;;;;;;;;5108117;27;45377;-77
2022/03/23 10:40:40;;;;;;;;;25.33;23.67;;;;;;;;5125504;27;45556;-77
2022/03/23 10:43:05;;;;;;;;;27.00;27.00;;;;;;;;5123603;27;45294;-78
2022/03/23 10:45:32;;;;;;;;;30.00;29.00;;;;;;;;5125119;27;45350;-76
2022/03/23 10:48:05;;;;;;;;;24.33;24.33;;;;;;;;5122776;27;45321;-77
2022/03/23 10:50:31;;;;;;;;;24.67;23.33;;;;;;;;5123697;27;45351;-78
2022/03/23 10:53:01;;;;;;;;;20.00;20.00;;;;;;;;5122971;27;45404;-77
2022/03/23 10:55:27;;;;;;;;;26.33;26.00;;;;;;;;5123415;27;45248;-78
2022/03/23 10:57:58;;;;;;;;;23.00;23.00;;;;;;;;5104809;27;45367;-78
2022/03/23 11:00:35;;;;;;;;;27.33;27.33;;;;;;;;5123206;27;45552;-78
2022/03/23 11:03:02;;;;;;;;;26.00;26.00;;;;;;;;5104105;27;47186;-77
2022/03/23 11:05:32;;;;;;;;;25.33;25.33;;;;;;;;5123089;27;45352;-78
2022/03/23 11:08:08;;;;;;;;;30.67;29.00;;;;;;;;5104349;27;45454;-75
2022/03/23 11:16:06;;;;;;;;;29.67;28.00;;;;;;;;5135957;27;45265;-76
2022/03/23 11:18:32;;;;;;;;;28.00;26.00;;;;;;;;5143990;27;45290;-77
2022/03/23 11:20:57;;;;;;;;;25.00;25.00;;;;;;;;5125202;27;46624;-77
2022/03/23 11:23:24;;;;;;;;;27.67;26.33;;;;;;;;5148751;27;45416;-76
2022/03/23 11:25:50;;;;;;;;;27.00;26.00;;;;;;;;5147299;27;45434;-76
2022/03/23 11:28:16;;;;;;;;;25.00;24.00;;;;;;;;5147947;27;45397;-76
2022/03/23 11:30:42;;;;;;;;;76.25;70.50;;;;;;;;5144068;27;45421;-77
2022/03/23 11:33:09;;;;;;;;;35.33;29.67;;;;;;;;5126476;27;47127;-75
2022/03/23 11:35:36;;;;;;;;;29.00;27.67;;;;;;;;5143667;27;45231;-78
2022/03/23 11:38:03;;;;;;;;;31.67;28.67;;;;;;;;5126187;27;45281;-79
2022/03/23 11:40:30;;;;;;;;;26.33;26.00;;;;;;;;5128698;27;46313;-76
2022/03/23 11:42:55;;;;;;;;;26.67;25.33;;;;;;;;5126415;27;47976;-75
2022/03/23 11:45:20;;;;;;;;;27.67;27.00;;;;;;;;5143922;27;45388;-77
2022/03/23 11:47:48;;;;;;;;;28.00;26.00;;;;;;;;5124772;27;45367;-75
2022/03/23 11:50:22;;;;;;;;;28.00;27.67;;;;;;;;5143221;27;45364;-76
2022/03/23 11:53:05;;;;;;;;;25.00;25.00;;;;;;;;5142777;27;45383;-78
2022/03/23 11:55:39;;;;;;;;;27.33;25.33;;;;;;;;5124916;27;45432;-75
2022/03/23 12:00:47;;;;;;;;;29.33;28.33;;;;;;;;5142925;27;45329;-74
2022/03/23 12:03:12;;;;;;;;;28.00;28.00;;;;;;;;5143059;27;45381;-78
2022/03/23 12:05:51;;;;;;;;;28.00;25.67;;;;;;;;5145510;27;45277;-79
2022/03/23 12:08:36;;;;;;;;;33.33;30.00;;;;;;;;5126396;27;45440;-78
2022/03/23 12:11:21;;;;;;;;;29.33;28.67;;;;;;;;5128102;27;46061;-78
2022/03/23 12:13:57;;;;;;;;;28.00;27.33;;;;;;;;5098593;27;48389;-78
2022/03/23 12:16:42;;;;;;;;;34.33;29.67;;;;;;;;5120665;27;45633;-77
2022/03/23 12:19:07;;;;;;;;;62.00;50.00;;;;;;;;5116918;27;45702;-74
2022/03/23 12:21:40;;;;;;;;;34.33;31.33;;;;;;;;5121973;27;45425;-78
2022/03/23 12:24:13;;;;;;;;;26.00;26.00;;;;;;;;5121975;27;46279;-78
2022/03/23 12:26:43;;;;;;;;;26.33;25.33;;;;;;;;5122974;27;45221;-75
2022/03/23 12:29:13;;;;;;;;;29.00;28.00;;;;;;;;5103963;27;45477;-75
2022/03/23 12:31:39;;;;;;;;;30.33;28.00;;;;;;;;5121982;27;47320;-77
2022/03/23 12:34:15;;;;;;;;;29.67;27.67;;;;;;;;5122112;27;48334;-75
2022/03/23 12:36:57;;;;;;;;;29.33;27.67;;;;;;;;5120970;27;45390;-77
2022/03/23 12:39:29;;;;;;;;;24.67;23.33;;;;;;;;5103096;27;45325;-75
2022/03/23 12:41:55;;;;;;;;;30.67;28.33;;;;;;;;5122276;27;45334;-75
2022/03/23 12:44:28;;;;;;;;;23.67;23.67;;;;;;;;5120703;27;47255;-76
2022/03/23 12:46:53;;;;;;;;;30.33;28.33;;;;;;;;5122241;27;45319;-76
2022/03/23 12:57:49;;;;;;;;;33.00;31.33;;;;;;;;5122727;27;45477;-75
2022/03/23 13:00:26;;;;;;;;;43.33;36.00;;;;;;;;5121891;27;45272;-76
2022/03/23 13:03:06;;;;;;;;;32.00;31.00;;;;;;;;5122018;27;45478;-75
2022/03/23 13:05:32;;;;;;;;;27.67;27.33;;;;;;;;5131790;27;45319;-77
2022/03/23 13:07:58;;;;;;;;;30.67;28.67;;;;;;;;5130871;27;45297;-77
2022/03/23 13:10:26;;;;;;;;;31.00;29.00;;;;;;;;5111271;27;45278;-77
2022/03/23 13:13:04;;;;;;;;;29.33;26.67;;;;;;;;5127883;27;45300;-79
2022/03/23 13:15:29;;;;;;;;;23.67;23.67;;;;;;;;5135444;27;46397;-77
2022/03/23 13:17:56;;;;;;;;;30.67;29.33;;;;;;;;5136222;27;45485;-76
2022/03/23 13:20:21;;;;;;;;;57.00;45.50;;;;;;;;5135971;27;45266;-76
2022/03/23 13:22:46;;;;;;;;;29.67;28.33;;;;;;;;5128248;27;46114;-77
2022/03/23 13:25:16;;;;;;;;;28.67;27.67;;;;;;;;5146117;27;45155;-76
2022/03/23 13:27:41;;;;;;;;;41.67;33.33;;;;;;;;5147425;27;45443;-76
2022/03/23 13:30:08;;;;;;;;;31.67;29.00;;;;;;;;5134447;27;44731;-76
2022/03/23 13:32:36;;;;;;;;;24.67;24.67;;;;;;;;5132504;27;47310;-76
2022/03/23 13:35:01;;;;;;;;;42.33;35.00;;;;;;;;5154015;27;45339;-78
2022/03/23 13:37:27;;;;;;;;;28.33;28.00;;;;;;;;5142658;27;45574;-75
2022/03/23 13:39:52;;;;;;;;;29.00;28.00;;;;;;;;5122986;27;45173;-75
2022/03/23 13:45:05;;;;;;;;;38.33;32.67;;;;;;;;5120150;27;45493;-75
2022/03/23 13:47:34;;;;;;;;;30.00;28.67;;;;;;;;5124844;27;45349;-76
2022/03/23 13:50:02;;;;;;;;;29.33;29.00;;;;;;;;5104340;27;45298;-77
2022/03/23 13:52:28;;;;;;;;;28.00;27.67;;;;;;;;5120274;27;45276;-75
2022/03/23 13:54:55;;;;;;;;;30.33;28.67;;;;;;;;5123160;27;45296;-77
2022/03/23 13:57:21;;;;;;;;;28.67;28.33;;;;;;;;5121610;27;45321;-78
2022/03/23 13:59:46;;;;;;;;;31.67;29.33;;;;;;;;5102204;27;45313;-79
2022/03/23 14:02:16;;;;;;;;;36.67;30.67;;;;;;;;5101704;27;45514;-79
2022/03/23 14:04:42;;;;;;;;;31.00;29.33;;;;;;;;5120215;27;45283;-80
2022/03/23 14:07:15;;;;;;;;;29.33;28.33;;;;;;;;5118461;27;45373;-80
2022/03/23 14:09:40;;;;;;;;;29.67;27.00;;;;;;;;5101147;27;45458;-80
2022/03/23 14:12:16;;;;;;;;;30.00;29.00;;;;;;;;5119547;27;45630;-79
2022/03/23 14:14:43;;;;;;;;;33.33;29.00;;;;;;;;5101826;27;45737;-77
2022/03/23 14:17:23;;;;;;;;;30.00;28.00;;;;;;;;5101295;27;45566;-80
2022/03/23 14:19:50;;;;;;;;;29.00;28.00;;;;;;;;5120037;27;45353;-78
2022/03/23 14:22:17;;;;;;;;;23.33;23.00;;;;;;;;5119587;27;45507;-78
2022/03/23 14:24:43;;;;;;;;;28.33;27.33;;;;;;;;5120231;27;46057;-77
2022/03/23 14:27:14;;;;;;;;;31.00;28.67;;;;;;;;5120011;27;45756;-78
2022/03/23 14:29:41;;;;;;;;;34.33;28.00;;;;;;;;5120110;27;45383;-76
2022/03/23 14:32:09;;;;;;;;;72.00;62.75;;;;;;;;5101333;27;45471;-77
2022/03/23 14:34:37;;;;;;;;;34.33;31.33;;;;;;;;5120116;27;46391;-78
2022/03/23 14:37:06;;;;;;;;;36.33;32.67;;;;;;;;5119761;27;45392;-76
2022/03/23 14:39:38;;;;;;;;;32.00;26.67;;;;;;;;5123583;27;45371;-77
2022/03/23 14:42:06;;;;;;;;;33.00;30.33;;;;;;;;5104606;27;46403;-77
2022/03/23 14:44:35;;;;;;;;;24.00;23.67;;;;;;;;5104377;27;45497;-77